createdAt,value
2023-11-15T00:03:19.849Z,100467.09
2023-11-15T00:08:25.662Z,100459.53
2023-11-15T00:13:31.232Z,100447.47
2023-11-15T00:18:36.432Z,100446.41
2023-11-15T00:23:42.068Z,100465.06
2023-11-15T00:28:47.782Z,100445.09
2023-11-15T00:33:53.575Z,100448.84
2023-11-15T00:38:59.472Z,100452.75
2023-11-15T00:44:09.328Z,100459.03
2023-11-15T00:49:14.949Z,100446.56
2023-11-15T00:54:21.381Z,100449.41
2023-11-15T00:59:28.581Z,100457.06
2023-11-15T01:04:34.768Z,100436.19
2023-11-15T01:09:40.306Z,100434.44
2023-11-15T01:14:46.109Z,100425.53
2023-11-15T01:19:52.080Z,100431.41
2023-11-15T01:24:57.935Z,100420.97
2023-11-15T01:30:04.272Z,100418.94
2023-11-15T01:35:10.709Z,100400.03
2023-11-15T01:40:17.484Z,100403.97
2023-11-15T01:45:22.866Z,100399.72
2023-11-15T01:50:28.902Z,100416.91
2023-11-15T01:55:34.779Z,100418.88
2023-11-15T02:00:41.801Z,100422.06
2023-11-15T02:05:48.626Z,100402.53
2023-11-15T02:10:55.056Z,100400.19
2023-11-15T02:16:00.948Z,100391.69
2023-11-15T02:21:07.563Z,100391.22
2023-11-15T02:26:14.639Z,100392.16
2023-11-15T02:31:21.269Z,100389.53
2023-11-15T02:36:28.975Z,100382.00
2023-11-15T02:41:34.795Z,100394.69
2023-11-15T02:46:40.590Z,100379.41
2023-11-15T02:51:48.496Z,100383.44
2023-11-15T02:56:55.950Z,100386.44
2023-11-15T03:02:01.939Z,100398.69
2023-11-15T03:07:07.749Z,100401.66
2023-11-15T03:12:13.534Z,100417.44
2023-11-15T03:17:21.202Z,100420.91
2023-11-15T03:22:25.699Z,100405.75
2023-11-15T03:27:31.408Z,100405.56
2023-11-15T03:32:37.490Z,100397.16
2023-11-15T03:37:43.487Z,100395.09
2023-11-15T03:42:49.514Z,100391.63
2023-11-15T03:47:55.568Z,100360.72
2023-11-15T03:53:01.980Z,100399.25
2023-11-15T03:58:07.835Z,100382.53
2023-11-15T04:03:13.867Z,100390.13
2023-11-15T04:08:20.282Z,100386.16
2023-11-15T04:13:26.519Z,100405.69
2023-11-15T04:18:35.470Z,100397.63
2023-11-15T04:23:41.221Z,100395.63
2023-11-15T04:28:46.909Z,100392.34
2023-11-15T04:33:52.870Z,100389.41
2023-11-15T04:38:59.537Z,100363.56
2023-11-15T04:44:06.446Z,100359.59
2023-11-15T04:49:12.144Z,100378.41
2023-11-15T04:54:17.002Z,100370.00
2023-11-15T04:59:22.737Z,100357.22
2023-11-15T05:04:28.037Z,100370.41
2023-11-15T05:09:32.495Z,100367.66
2023-11-15T05:14:38.589Z,100352.16
2023-11-15T05:19:43.388Z,100331.25
2023-11-15T05:24:47.865Z,100329.91
2023-11-15T05:29:52.423Z,100332.81
2023-11-15T05:34:56.679Z,100334.06
2023-11-15T05:40:02.814Z,100318.88
2023-11-15T05:45:09.454Z,100313.25
2023-11-15T05:50:13.866Z,100306.75
2023-11-15T05:55:18.316Z,100305.84
2023-11-15T06:00:22.969Z,100307.03
2023-11-15T06:05:27.805Z,100291.03
2023-11-15T06:10:32.131Z,100274.75
2023-11-15T06:15:36.367Z,100294.91
2023-11-15T06:20:40.782Z,100297.03
2023-11-15T06:25:45.656Z,100281.69
2023-11-15T06:30:50.826Z,100278.47
2023-11-15T06:35:55.230Z,100251.53
2023-11-15T06:41:02.262Z,100268.69
2023-11-15T06:46:06.640Z,100257.16
2023-11-15T06:51:11.211Z,100246.19
2023-11-15T06:56:15.846Z,100242.56
2023-11-15T07:01:20.492Z,100229.34
2023-11-15T07:06:26.132Z,100229.34
2023-11-15T07:11:30.911Z,100211.59
2023-11-15T07:16:35.383Z,100207.00
2023-11-15T07:21:39.737Z,100204.00
2023-11-15T07:26:45.223Z,100202.25
2023-11-15T07:31:56.357Z,100182.97
2023-11-15T07:37:04.302Z,100172.25
2023-11-15T07:42:08.907Z,100181.09
2023-11-15T07:47:15.644Z,100178.47
2023-11-15T07:52:22.619Z,100167.66
2023-11-15T07:57:29.704Z,100154.63
2023-11-15T08:02:37.329Z,100133.28
2023-11-15T08:07:43.687Z,100131.69
2023-11-15T08:12:51.494Z,100132.88
2023-11-15T08:17:56.354Z,100104.88
2023-11-15T08:23:00.658Z,100104.34
2023-11-15T08:28:06.533Z,100100.50
2023-11-15T08:33:11.823Z,100089.81
2023-11-15T08:38:16.432Z,100067.28
2023-11-15T08:43:21.312Z,100054.81
2023-11-15T08:48:26.251Z,100058.09
2023-11-15T08:53:31.277Z,100054.44
2023-11-15T08:58:36.457Z,100037.50
2023-11-15T09:03:42.765Z,100029.94
2023-11-15T09:08:47.937Z,100029.53
2023-11-15T09:13:52.535Z,100013.38
2023-11-15T09:19:01.224Z,100011.00
2023-11-15T09:24:06.950Z,100005.56
2023-11-15T09:29:15.683Z,99982.97
2023-11-15T09:34:29.189Z,99993.09
2023-11-15T09:39:34.950Z,99986.66
2023-11-15T09:44:45.518Z,99990.91
2023-11-15T09:49:52.790Z,99990.66
2023-11-15T09:55:00.003Z,99964.69
2023-11-15T10:00:16.107Z,99980.19
2023-11-15T10:05:28.644Z,99967.09
2023-11-15T10:10:33.641Z,99967.50
2023-11-15T10:15:41.607Z,99950.97
2023-11-15T10:20:46.033Z,99963.66
2023-11-15T10:25:56.651Z,99968.28
2023-11-15T10:31:23.216Z,99954.97
2023-11-15T10:36:27.725Z,99952.13
2023-11-15T10:41:34.643Z,99942.06
2023-11-15T10:46:44.197Z,99934.31
2023-11-15T10:51:51.259Z,99928.22
2023-11-15T10:56:58.075Z,99923.13
2023-11-15T11:02:07.491Z,99927.75
2023-11-15T11:07:18.814Z,99926.16
2023-11-15T11:12:24.173Z,99923.09
2023-11-15T11:17:39.215Z,99911.59
2023-11-15T11:23:23.798Z,99909.72
2023-11-15T11:28:28.874Z,99911.69
2023-11-15T11:33:34.370Z,99908.94
2023-11-15T11:38:43.893Z,99911.75
2023-11-15T11:43:58.316Z,99910.06
2023-11-15T11:49:02.751Z,99915.84
2023-11-15T11:54:21.749Z,99927.00
2023-11-15T11:59:30.006Z,99917.72
2023-11-15T12:04:46.198Z,99919.28
2023-11-15T12:09:52.490Z,99915.31
2023-11-15T12:15:06.987Z,99920.91
2023-11-15T12:20:12.899Z,99914.19
2023-11-15T12:25:17.853Z,99917.34
2023-11-15T12:30:22.454Z,99892.41
2023-11-15T12:35:26.848Z,99908.75
2023-11-15T12:40:31.302Z,99911.91
2023-11-15T12:45:37.591Z,99915.94
2023-11-15T12:50:44.798Z,99917.66
2023-11-15T12:55:54.816Z,99910.66
2023-11-15T13:01:04.188Z,99922.31
2023-11-15T13:06:29.038Z,99916.41
2023-11-15T13:11:34.812Z,99909.66
2023-11-15T13:16:39.421Z,99915.94
2023-11-15T13:21:45.866Z,99914.47
2023-11-15T13:26:52.852Z,99932.28
2023-11-15T13:31:57.172Z,99931.66
2023-11-15T13:37:01.482Z,99938.75
2023-11-15T13:42:07.206Z,99926.41
2023-11-15T13:47:11.697Z,99932.16
2023-11-15T13:52:17.711Z,99892.75
2023-11-15T13:57:22.499Z,99922.41
2023-11-15T14:02:28.756Z,99880.03
2023-11-15T14:07:33.197Z,99920.94
2023-11-15T14:12:37.787Z,99925.44
2023-11-15T14:17:42.220Z,99930.34
2023-11-15T14:22:46.672Z,99945.22
2023-11-15T14:27:58.180Z,99951.03
2023-11-15T14:33:04.693Z,99953.25
2023-11-15T14:38:10.678Z,99956.44
2023-11-15T14:43:17.651Z,99952.72
2023-11-15T14:48:23.513Z,99963.19
2023-11-15T14:53:28.948Z,99950.38
2023-11-15T14:58:37.172Z,99962.03
2023-11-15T15:03:43.696Z,99956.53
2023-11-15T15:08:49.560Z,99960.19
2023-11-15T15:13:55.466Z,99943.53
2023-11-15T15:19:01.367Z,99928.66
2023-11-15T15:24:07.796Z,99929.69
2023-11-15T15:29:24.940Z,99909.06
2023-11-15T15:34:36.769Z,99929.25
2023-11-15T15:39:42.695Z,99925.88
2023-11-15T15:44:53.974Z,99932.56
2023-11-15T15:49:59.749Z,99929.78
2023-11-15T15:55:08.030Z,99945.22
2023-11-15T16:00:14.084Z,99946.06
2023-11-15T16:05:19.904Z,99937.97
2023-11-15T16:10:25.692Z,99934.00
2023-11-15T16:15:31.253Z,99945.78
2023-11-15T16:20:38.354Z,99942.28
2023-11-15T16:25:44.054Z,99936.69
2023-11-15T16:30:49.820Z,99903.94
2023-11-15T16:35:55.448Z,99909.00
2023-11-15T16:41:07.949Z,99910.03
2023-11-15T16:46:23.046Z,99922.25
2023-11-15T16:51:55.414Z,99930.84
2023-11-15T16:57:04.746Z,99924.88
2023-11-15T17:02:10.431Z,99916.69
2023-11-15T17:07:18.691Z,99917.44
2023-11-15T17:12:25.206Z,99907.41
2023-11-15T17:17:30.836Z,99903.44
2023-11-15T17:22:37.267Z,99892.41
2023-11-15T17:27:43.132Z,99900.59
2023-11-15T17:32:49.286Z,99895.19
2023-11-15T17:37:55.878Z,99899.44
2023-11-15T17:43:01.599Z,99897.09
2023-11-15T17:48:10.202Z,99901.91
2023-11-15T17:53:16.268Z,99909.97
2023-11-15T17:58:22.632Z,99895.56
2023-11-15T18:03:28.477Z,99903.66
2023-11-15T18:08:34.318Z,99907.41
2023-11-15T18:13:39.919Z,99905.41
2023-11-15T18:18:45.497Z,99900.16
2023-11-15T18:23:51.398Z,99897.31
2023-11-15T18:28:58.305Z,99910.03
2023-11-15T18:34:04.126Z,99919.91
2023-11-15T18:39:17.723Z,99915.53
2023-11-15T18:44:23.756Z,99914.13
2023-11-15T18:49:29.766Z,99927.28
2023-11-15T18:54:41.492Z,99928.34
2023-11-15T18:59:47.329Z,99926.44
2023-11-15T19:04:52.971Z,99920.06
2023-11-15T19:09:59.368Z,99915.25
2023-11-15T19:15:09.147Z,99915.34
2023-11-15T19:20:17.447Z,99901.63
2023-11-15T19:25:24.365Z,99899.84
2023-11-15T19:30:30.125Z,99899.09
2023-11-15T19:36:00.999Z,99906.56
2023-11-15T19:41:10.889Z,99914.44
2023-11-15T19:46:20.663Z,99906.47
2023-11-15T19:51:37.512Z,99914.56
2023-11-15T19:56:46.605Z,99906.22
2023-11-15T20:01:52.285Z,99902.00
2023-11-15T20:06:58.075Z,99915.22
2023-11-15T20:12:03.979Z,99900.56
2023-11-15T20:17:09.705Z,99888.06
2023-11-15T20:22:15.460Z,99908.13
2023-11-15T20:27:21.521Z,99921.72
2023-11-15T20:32:33.348Z,99918.13
2023-11-15T20:37:39.113Z,99916.56
2023-11-15T20:42:48.479Z,99914.03
2023-11-15T20:47:54.934Z,99897.72
2023-11-15T20:53:02.563Z,99913.59
2023-11-15T20:58:08.533Z,99916.69
2023-11-15T21:03:19.029Z,99927.09
2023-11-15T21:08:24.823Z,99920.56
2023-11-15T21:13:30.854Z,99917.25
2023-11-15T21:18:37.615Z,99934.00
2023-11-15T21:23:44.072Z,99928.81
2023-11-15T21:28:56.638Z,99933.88
2023-11-15T21:34:02.413Z,99932.56
2023-11-15T21:39:10.091Z,99941.50
2023-11-15T21:44:18.418Z,99937.34
2023-11-15T21:49:23.856Z,99935.84
2023-11-15T21:54:30.202Z,99923.81
2023-11-15T21:59:37.223Z,99918.69
2023-11-15T22:04:42.951Z,99918.19
2023-11-15T22:09:48.685Z,99920.38
2023-11-15T22:14:54.356Z,99912.53
2023-11-15T22:20:00.159Z,99912.66
2023-11-15T22:25:07.353Z,99918.50
2023-11-15T22:30:13.905Z,99920.78
2023-11-15T22:35:19.714Z,99907.34
2023-11-15T22:40:25.320Z,99907.09
2023-11-15T22:45:32.431Z,99919.16
2023-11-15T22:50:44.119Z,99923.94
2023-11-15T22:55:49.889Z,99934.97
2023-11-15T23:00:56.113Z,99934.22
2023-11-15T23:06:02.031Z,99950.09
2023-11-15T23:11:12.175Z,99951.47
2023-11-15T23:16:17.956Z,99954.47
2023-11-15T23:21:23.886Z,99948.31
2023-11-15T23:26:30.729Z,99953.16
2023-11-15T23:31:36.612Z,99948.13
2023-11-15T23:36:42.758Z,99944.34
2023-11-15T23:41:48.674Z,99949.09
2023-11-15T23:46:54.331Z,99932.63
2023-11-15T23:51:59.946Z,99956.50
2023-11-15T23:57:07.292Z,99959.97
